sensor_id;sensor_type;location;lat;lon;timestamp;temperature;humidity
9223;DHT22;7557;51.698;3.942;2023-04-15T00:00:21;11.60;99.90
9223;DHT22;7557;51.698;3.942;2023-04-15T00:02:49;11.70;99.90
9223;DHT22;7557;51.698;3.942;2023-04-15T00:05:16;11.70;99.90
9223;DHT22;7557;51.698;3.942;2023-04-15T00:07:44;11.70;99.90
9223;DHT22;7557;51.698;3.942;2023-04-15T00:10:12;11.80;99.90
9223;DHT22;7557;51.698;3.942;2023-04-15T00:12:41;11.80;99.90
9223;DHT22;7557;51.698;3.942;2023-04-15T00:15:09;11.80;99.90
9223;DHT22;7557;51.698;3.942;2023-04-15T00:17:37;11.90;99.90
9223;DHT22;7557;51.698;3.942;2023-04-15T00:20:07;11.90;99.90
9223;DHT22;7557;51.698;3.942;2023-04-15T00:22:35;11.90;99.90
9223;DHT22;7557;51.698;3.942;2023-04-15T00:25:02;11.80;99.90
9223;DHT22;7557;51.698;3.942;2023-04-15T00:27:30;11.80;99.90
9223;DHT22;7557;51.698;3.942;2023-04-15T00:30:01;11.80;99.90
9223;DHT22;7557;51.698;3.942;2023-04-15T00:32:29;11.80;99.90
9223;DHT22;7557;51.698;3.942;2023-04-15T00:34:59;11.80;99.90
9223;DHT22;7557;51.698;3.942;2023-04-15T00:37:28;11.70;99.90
9223;DHT22;7557;51.698;3.942;2023-04-15T00:39:55;11.50;99.90
9223;DHT22;7557;51.698;3.942;2023-04-15T00:42:24;11.40;99.90
9223;DHT22;7557;51.698;3.942;2023-04-15T00:44:51;11.50;99.90
9223;DHT22;7557;51.698;3.942;2023-04-15T00:47:22;11.50;99.90
9223;DHT22;7557;51.698;3.942;2023-04-15T00:49:49;11.60;99.90
9223;DHT22;7557;51.698;3.942;2023-04-15T00:52:17;11.60;99.90
9223;DHT22;7557;51.698;3.942;2023-04-15T00:54:45;11.70;99.90
9223;DHT22;7557;51.698;3.942;2023-04-15T00:57:12;11.70;99.90
9223;DHT22;7557;51.698;3.942;2023-04-15T00:59:40;11.80;99.90
9223;DHT22;7557;51.698;3.942;2023-04-15T01:02:08;11.60;99.90
9223;DHT22;7557;51.698;3.942;2023-04-15T01:04:37;11.60;99.90
9223;DHT22;7557;51.698;3.942;2023-04-15T01:07:05;11.70;99.90
9223;DHT22;7557;51.698;3.942;2023-04-15T01:09:33;11.70;99.90
9223;DHT22;7557;51.698;3.942;2023-04-15T01:12:00;11.70;99.90
9223;DHT22;7557;51.698;3.942;2023-04-15T01:14:29;11.80;99.90
9223;DHT22;7557;51.698;3.942;2023-04-15T01:16:56;11.70;99.90
9223;DHT22;7557;51.698;3.942;2023-04-15T01:19:24;11.60;99.90
9223;DHT22;7557;51.698;3.942;2023-04-15T01:21:53;11.60;99.90
9223;DHT22;7557;51.698;3.942;2023-04-15T01:24:22;11.60;99.90
9223;DHT22;7557;51.698;3.942;2023-04-15T01:26:52;11.50;99.90
9223;DHT22;7557;51.698;3.942;2023-04-15T01:29:19;11.50;99.90
9223;DHT22;7557;51.698;3.942;2023-04-15T01:31:50;11.40;99.90
9223;DHT22;7557;51.698;3.942;2023-04-15T01:34:18;11.40;99.90
9223;DHT22;7557;51.698;3.942;2023-04-15T01:36:46;11.30;99.90
9223;DHT22;7557;51.698;3.942;2023-04-15T01:39:14;11.20;99.90
9223;DHT22;7557;51.698;3.942;2023-04-15T01:41:41;11.10;99.90
9223;DHT22;7557;51.698;3.942;2023-04-15T01:44:10;10.90;99.90
9223;DHT22;7557;51.698;3.942;2023-04-15T01:46:38;10.80;99.90
9223;DHT22;7557;51.698;3.942;2023-04-15T01:49:05;10.70;99.90
9223;DHT22;7557;51.698;3.942;2023-04-15T01:51:33;10.80;99.90
9223;DHT22;7557;51.698;3.942;2023-04-15T01:54:00;10.80;99.90
9223;DHT22;7557;51.698;3.942;2023-04-15T01:56:28;10.80;99.90
9223;DHT22;7557;51.698;3.942;2023-04-15T01:58:55;10.80;99.90
9223;DHT22;7557;51.698;3.942;2023-04-15T02:01:24;10.90;99.90
9223;DHT22;7557;51.698;3.942;2023-04-15T02:03:52;10.90;99.90
9223;DHT22;7557;51.698;3.942;2023-04-15T02:06:19;11.00;99.90
9223;DHT22;7557;51.698;3.942;2023-04-15T02:08:47;11.20;99.90
9223;DHT22;7557;51.698;3.942;2023-04-15T02:11:14;11.30;99.90
9223;DHT22;7557;51.698;3.942;2023-04-15T02:13:43;11.30;99.90
9223;DHT22;7557;51.698;3.942;2023-04-15T02:16:17;11.30;99.90
9223;DHT22;7557;51.698;3.942;2023-04-15T02:18:46;11.20;99.90
9223;DHT22;7557;51.698;3.942;2023-04-15T02:21:14;11.10;99.90
9223;DHT22;7557;51.698;3.942;2023-04-15T02:23:41;11.00;99.90
9223;DHT22;7557;51.698;3.942;2023-04-15T02:26:11;11.00;99.90
9223;DHT22;7557;51.698;3.942;2023-04-15T02:28:39;11.00;99.90
9223;DHT22;7557;51.698;3.942;2023-04-15T02:31:07;10.90;99.90
9223;DHT22;7557;51.698;3.942;2023-04-15T02:33:34;10.90;99.90
9223;DHT22;7557;51.698;3.942;2023-04-15T02:36:04;10.90;99.90
9223;DHT22;7557;51.698;3.942;2023-04-15T02:38:32;10.90;99.90
9223;DHT22;7557;51.698;3.942;2023-04-15T02:41:00;10.90;99.90
9223;DHT22;7557;51.698;3.942;2023-04-15T02:43:27;10.90;99.90
9223;DHT22;7557;51.698;3.942;2023-04-15T02:45:55;10.90;99.90
9223;DHT22;7557;51.698;3.942;2023-04-15T02:48:22;11.00;99.90
9223;DHT22;7557;51.698;3.942;2023-04-15T02:50:50;11.00;99.90
9223;DHT22;7557;51.698;3.942;2023-04-15T02:53:19;11.00;99.90
9223;DHT22;7557;51.698;3.942;2023-04-15T02:55:47;10.90;99.90
9223;DHT22;7557;51.698;3.942;2023-04-15T02:58:14;10.80;99.90
9223;DHT22;7557;51.698;3.942;2023-04-15T03:00:42;10.80;99.90
9223;DHT22;7557;51.698;3.942;2023-04-15T03:03:09;10.80;99.90
9223;DHT22;7557;51.698;3.942;2023-04-15T03:05:36;10.90;99.90
9223;DHT22;7557;51.698;3.942;2023-04-15T03:08:05;11.00;99.90
9223;DHT22;7557;51.698;3.942;2023-04-15T03:10:34;11.10;99.90
9223;DHT22;7557;51.698;3.942;2023-04-15T03:13:01;11.10;99.90
9223;DHT22;7557;51.698;3.942;2023-04-15T03:15:29;11.20;99.90
9223;DHT22;7557;51.698;3.942;2023-04-15T03:17:59;11.10;99.90
9223;DHT22;7557;51.698;3.942;2023-04-15T03:20:26;11.10;99.90
9223;DHT22;7557;51.698;3.942;2023-04-15T03:22:54;11.00;99.90
9223;DHT22;7557;51.698;3.942;2023-04-15T03:25:21;10.80;99.90
9223;DHT22;7557;51.698;3.942;2023-04-15T03:27:51;10.70;99.90
9223;DHT22;7557;51.698;3.942;2023-04-15T03:30:18;10.70;99.90
9223;DHT22;7557;51.698;3.942;2023-04-15T03:32:46;10.60;99.90
9223;DHT22;7557;51.698;3.942;2023-04-15T03:35:14;10.60;99.90
9223;DHT22;7557;51.698;3.942;2023-04-15T03:37:41;10.50;99.90
9223;DHT22;7557;51.698;3.942;2023-04-15T03:40:10;10.50;99.90
9223;DHT22;7557;51.698;3.942;2023-04-15T03:42:38;10.50;99.90
9223;DHT22;7557;51.698;3.942;2023-04-15T03:45:08;10.50;99.90
9223;DHT22;7557;51.698;3.942;2023-04-15T03:47:37;10.60;99.90
9223;DHT22;7557;51.698;3.942;2023-04-15T03:50:05;10.60;99.90
9223;DHT22;7557;51.698;3.942;2023-04-15T03:52:33;10.70;99.90
9223;DHT22;7557;51.698;3.942;2023-04-15T03:55:01;10.80;99.90
9223;DHT22;7557;51.698;3.942;2023-04-15T03:57:28;10.90;99.90
9223;DHT22;7557;51.698;3.942;2023-04-15T03:59:56;11.00;99.90
9223;DHT22;7557;51.698;3.942;2023-04-15T04:02:26;11.00;99.90
9223;DHT22;7557;51.698;3.942;2023-04-15T04:04:53;11.00;99.90
9223;DHT22;7557;51.698;3.942;2023-04-15T04:07:22;11.00;99.90
9223;DHT22;7557;51.698;3.942;2023-04-15T04:09:50;11.00;99.90
9223;DHT22;7557;51.698;3.942;2023-04-15T04:12:18;11.00;99.90
9223;DHT22;7557;51.698;3.942;2023-04-15T04:14:45;10.90;99.90
9223;DHT22;7557;51.698;3.942;2023-04-15T04:17:13;10.70;99.90
9223;DHT22;7557;51.698;3.942;2023-04-15T04:19:42;10.60;99.90
9223;DHT22;7557;51.698;3.942;2023-04-15T04:22:10;10.50;99.90
9223;DHT22;7557;51.698;3.942;2023-04-15T04:24:40;10.30;99.90
9223;DHT22;7557;51.698;3.942;2023-04-15T04:27:08;10.20;99.90
9223;DHT22;7557;51.698;3.942;2023-04-15T04:29:35;10.20;99.90
9223;DHT22;7557;51.698;3.942;2023-04-15T04:32:03;10.10;99.90
9223;DHT22;7557;51.698;3.942;2023-04-15T04:34:31;10.20;99.90
9223;DHT22;7557;51.698;3.942;2023-04-15T04:37:00;10.20;99.90
9223;DHT22;7557;51.698;3.942;2023-04-15T04:39:27;10.20;99.90
9223;DHT22;7557;51.698;3.942;2023-04-15T04:41:55;10.20;99.90
9223;DHT22;7557;51.698;3.942;2023-04-15T04:44:23;10.10;99.90
9223;DHT22;7557;51.698;3.942;2023-04-15T04:46:50;10.10;99.90
9223;DHT22;7557;51.698;3.942;2023-04-15T04:49:18;10.10;99.90
9223;DHT22;7557;51.698;3.942;2023-04-15T04:51:45;10.10;99.90
9223;DHT22;7557;51.698;3.942;2023-04-15T04:54:15;10.10;99.90
9223;DHT22;7557;51.698;3.942;2023-04-15T04:56:42;10.10;99.90
9223;DHT22;7557;51.698;3.942;2023-04-15T04:59:13;10.10;99.90
9223;DHT22;7557;51.698;3.942;2023-04-15T05:01:40;10.10;99.90
9223;DHT22;7557;51.698;3.942;2023-04-15T05:04:08;10.10;99.90
9223;DHT22;7557;51.698;3.942;2023-04-15T05:06:35;10.00;99.90
9223;DHT22;7557;51.698;3.942;2023-04-15T05:09:03;10.00;99.90
9223;DHT22;7557;51.698;3.942;2023-04-15T05:11:32;10.00;99.90
9223;DHT22;7557;51.698;3.942;2023-04-15T05:14:01;10.00;99.90
9223;DHT22;7557;51.698;3.942;2023-04-15T05:16:29;9.90;99.90
9223;DHT22;7557;51.698;3.942;2023-04-15T05:18:56;9.90;99.90
9223;DHT22;7557;51.698;3.942;2023-04-15T05:21:24;9.90;99.90
9223;DHT22;7557;51.698;3.942;2023-04-15T05:23:52;9.90;99.90
9223;DHT22;7557;51.698;3.942;2023-04-15T05:26:19;9.90;99.90
9223;DHT22;7557;51.698;3.942;2023-04-15T05:28:50;10.00;99.90
9223;DHT22;7557;51.698;3.942;2023-04-15T05:31:18;10.00;99.90
9223;DHT22;7557;51.698;3.942;2023-04-15T05:33:46;10.10;99.90
9223;DHT22;7557;51.698;3.942;2023-04-15T05:36:14;10.10;99.90
9223;DHT22;7557;51.698;3.942;2023-04-15T05:38:41;10.00;99.90
9223;DHT22;7557;51.698;3.942;2023-04-15T05:41:09;10.00;99.90
9223;DHT22;7557;51.698;3.942;2023-04-15T05:43:36;9.90;99.90
9223;DHT22;7557;51.698;3.942;2023-04-15T05:46:06;9.90;99.90
9223;DHT22;7557;51.698;3.942;2023-04-15T05:48:34;9.90;99.90
9223;DHT22;7557;51.698;3.942;2023-04-15T05:51:02;9.90;99.90
9223;DHT22;7557;51.698;3.942;2023-04-15T05:53:29;9.80;99.90
9223;DHT22;7557;51.698;3.942;2023-04-15T05:55:57;9.80;99.90
9223;DHT22;7557;51.698;3.942;2023-04-15T05:58:25;9.70;99.90
9223;DHT22;7557;51.698;3.942;2023-04-15T06:00:53;9.80;99.90
9223;DHT22;7557;51.698;3.942;2023-04-15T06:03:22;9.80;99.90
9223;DHT22;7557;51.698;3.942;2023-04-15T06:05:50;9.80;99.90
9223;DHT22;7557;51.698;3.942;2023-04-15T06:08:18;9.90;99.90
9223;DHT22;7557;51.698;3.942;2023-04-15T06:10:45;9.90;99.90
9223;DHT22;7557;51.698;3.942;2023-04-15T06:13:13;10.00;99.90
9223;DHT22;7557;51.698;3.942;2023-04-15T06:15:42;10.00;99.90
9223;DHT22;7557;51.698;3.942;2023-04-15T06:18:09;10.00;99.90
9223;DHT22;7557;51.698;3.942;2023-04-15T06:20:39;10.00;99.90
9223;DHT22;7557;51.698;3.942;2023-04-15T06:23:07;10.00;99.90
9223;DHT22;7557;51.698;3.942;2023-04-15T06:25:34;10.10;99.90
9223;DHT22;7557;51.698;3.942;2023-04-15T06:28:02;10.10;99.90
9223;DHT22;7557;51.698;3.942;2023-04-15T06:30:29;10.20;99.90
9223;DHT22;7557;51.698;3.942;2023-04-15T06:32:57;10.30;99.90
9223;DHT22;7557;51.698;3.942;2023-04-15T06:35:24;10.40;99.90
9223;DHT22;7557;51.698;3.942;2023-04-15T06:37:53;10.50;99.90
9223;DHT22;7557;51.698;3.942;2023-04-15T06:40:21;10.60;99.90
9223;DHT22;7557;51.698;3.942;2023-04-15T06:42:49;10.70;99.90
9223;DHT22;7557;51.698;3.942;2023-04-15T06:45:16;10.80;99.90
9223;DHT22;7557;51.698;3.942;2023-04-15T06:47:44;10.90;99.90
9223;DHT22;7557;51.698;3.942;2023-04-15T06:50:11;11.00;99.90
9223;DHT22;7557;51.698;3.942;2023-04-15T06:52:39;11.10;99.90
9223;DHT22;7557;51.698;3.942;2023-04-15T06:55:09;11.30;99.90
9223;DHT22;7557;51.698;3.942;2023-04-15T06:57:36;11.40;99.90
9223;DHT22;7557;51.698;3.942;2023-04-15T07:00:04;11.50;99.90
9223;DHT22;7557;51.698;3.942;2023-04-15T07:02:32;11.60;99.90
9223;DHT22;7557;51.698;3.942;2023-04-15T07:04:59;11.70;99.90
9223;DHT22;7557;51.698;3.942;2023-04-15T07:07:27;11.80;99.90
9223;DHT22;7557;51.698;3.942;2023-04-15T07:09:55;11.80;99.90
9223;DHT22;7557;51.698;3.942;2023-04-15T07:12:24;11.80;99.90
9223;DHT22;7557;51.698;3.942;2023-04-15T07:14:52;11.90;99.90
9223;DHT22;7557;51.698;3.942;2023-04-15T07:17:20;12.00;99.90
9223;DHT22;7557;51.698;3.942;2023-04-15T07:19:47;12.10;99.90
9223;DHT22;7557;51.698;3.942;2023-04-15T07:22:15;12.20;99.90
9223;DHT22;7557;51.698;3.942;2023-04-15T07:24:42;12.20;99.90
9223;DHT22;7557;51.698;3.942;2023-04-15T07:27:10;12.30;99.90
9223;DHT22;7557;51.698;3.942;2023-04-15T07:29:39;12.30;99.90
9223;DHT22;7557;51.698;3.942;2023-04-15T07:32:07;12.30;99.90
9223;DHT22;7557;51.698;3.942;2023-04-15T07:34:35;12.30;99.90
9223;DHT22;7557;51.698;3.942;2023-04-15T07:37:03;12.40;99.90
9223;DHT22;7557;51.698;3.942;2023-04-15T07:39:31;12.40;99.90
9223;DHT22;7557;51.698;3.942;2023-04-15T07:41:58;12.50;99.90
9223;DHT22;7557;51.698;3.942;2023-04-15T07:44:26;12.50;99.90
9223;DHT22;7557;51.698;3.942;2023-04-15T07:46:55;12.60;99.90
9223;DHT22;7557;51.698;3.942;2023-04-15T07:49:23;12.60;99.90
9223;DHT22;7557;51.698;3.942;2023-04-15T07:51:51;12.70;99.90
9223;DHT22;7557;51.698;3.942;2023-04-15T07:54:18;12.70;99.90
9223;DHT22;7557;51.698;3.942;2023-04-15T07:56:46;12.80;99.90
9223;DHT22;7557;51.698;3.942;2023-04-15T07:59:16;12.80;99.90
9223;DHT22;7557;51.698;3.942;2023-04-15T08:01:43;12.80;99.90
9223;DHT22;7557;51.698;3.942;2023-04-15T08:04:13;12.90;99.90
9223;DHT22;7557;51.698;3.942;2023-04-15T08:06:40;13.00;99.90
9223;DHT22;7557;51.698;3.942;2023-04-15T08:09:09;13.00;99.90
9223;DHT22;7557;51.698;3.942;2023-04-15T08:11:37;13.20;99.90
9223;DHT22;7557;51.698;3.942;2023-04-15T08:14:05;13.20;99.90
9223;DHT22;7557;51.698;3.942;2023-04-15T08:16:32;13.30;99.90
9223;DHT22;7557;51.698;3.942;2023-04-15T08:19:00;13.30;99.90
9223;DHT22;7557;51.698;3.942;2023-04-15T08:21:30;13.30;99.90
9223;DHT22;7557;51.698;3.942;2023-04-15T08:23:57;13.40;99.90
9223;DHT22;7557;51.698;3.942;2023-04-15T08:26:25;13.50;99.90
9223;DHT22;7557;51.698;3.942;2023-04-15T08:28:53;13.60;99.90
9223;DHT22;7557;51.698;3.942;2023-04-15T08:31:20;13.60;99.90
9223;DHT22;7557;51.698;3.942;2023-04-15T08:33:48;13.70;99.90
9223;DHT22;7557;51.698;3.942;2023-04-15T08:36:16;13.80;99.90
9223;DHT22;7557;51.698;3.942;2023-04-15T08:38:45;13.90;99.90
9223;DHT22;7557;51.698;3.942;2023-04-15T08:41:20;14.00;99.90
9223;DHT22;7557;51.698;3.942;2023-04-15T08:43:51;14.10;99.90
9223;DHT22;7557;51.698;3.942;2023-04-15T08:46:20;14.20;99.90
9223;DHT22;7557;51.698;3.942;2023-04-15T08:48:49;14.20;99.90
9223;DHT22;7557;51.698;3.942;2023-04-15T08:51:17;14.30;99.90
9223;DHT22;7557;51.698;3.942;2023-04-15T08:53:46;14.30;99.90
9223;DHT22;7557;51.698;3.942;2023-04-15T08:56:15;14.40;99.90
9223;DHT22;7557;51.698;3.942;2023-04-15T08:58:43;14.40;99.90
9223;DHT22;7557;51.698;3.942;2023-04-15T09:01:11;14.40;99.90
9223;DHT22;7557;51.698;3.942;2023-04-15T09:03:39;14.50;99.90
9223;DHT22;7557;51.698;3.942;2023-04-15T09:06:07;14.60;99.90
9223;DHT22;7557;51.698;3.942;2023-04-15T09:08:35;14.70;99.90
9223;DHT22;7557;51.698;3.942;2023-04-15T09:11:05;14.60;99.90
9223;DHT22;7557;51.698;3.942;2023-04-15T09:13:33;14.70;99.90
9223;DHT22;7557;51.698;3.942;2023-04-15T09:16:01;14.70;99.90
9223;DHT22;7557;51.698;3.942;2023-04-15T09:18:30;14.80;99.90
9223;DHT22;7557;51.698;3.942;2023-04-15T09:21:04;14.80;99.90
9223;DHT22;7557;51.698;3.942;2023-04-15T09:23:34;15.00;99.90
9223;DHT22;7557;51.698;3.942;2023-04-15T09:26:01;15.00;99.90
9223;DHT22;7557;51.698;3.942;2023-04-15T09:28:40;15.10;99.90
9223;DHT22;7557;51.698;3.942;2023-04-15T09:31:08;15.00;99.90
9223;DHT22;7557;51.698;3.942;2023-04-15T09:33:53;14.90;99.90
9223;DHT22;7557;51.698;3.942;2023-04-15T09:36:22;15.00;99.90
9223;DHT22;7557;51.698;3.942;2023-04-15T09:38:54;15.00;99.90
9223;DHT22;7557;51.698;3.942;2023-04-15T09:41:22;15.00;99.90
9223;DHT22;7557;51.698;3.942;2023-04-15T09:43:52;15.10;99.90
9223;DHT22;7557;51.698;3.942;2023-04-15T09:46:20;14.90;99.90
9223;DHT22;7557;51.698;3.942;2023-04-15T09:49:10;14.70;99.90
9223;DHT22;7557;51.698;3.942;2023-04-15T09:51:38;14.60;99.90
9223;DHT22;7557;51.698;3.942;2023-04-15T09:54:09;14.70;99.90
9223;DHT22;7557;51.698;3.942;2023-04-15T09:56:38;14.80;99.90
9223;DHT22;7557;51.698;3.942;2023-04-15T09:59:08;14.90;99.90
9223;DHT22;7557;51.698;3.942;2023-04-15T10:01:37;15.00;99.90
9223;DHT22;7557;51.698;3.942;2023-04-15T10:04:08;15.00;99.90
9223;DHT22;7557;51.698;3.942;2023-04-15T10:06:36;15.00;99.90
9223;DHT22;7557;51.698;3.942;2023-04-15T10:09:06;14.90;99.90
9223;DHT22;7557;51.698;3.942;2023-04-15T10:11:34;14.80;99.90
9223;DHT22;7557;51.698;3.942;2023-04-15T10:14:02;14.80;99.90
9223;DHT22;7557;51.698;3.942;2023-04-15T10:16:32;14.70;99.90
9223;DHT22;7557;51.698;3.942;2023-04-15T10:19:01;14.80;99.90
9223;DHT22;7557;51.698;3.942;2023-04-15T10:21:30;14.70;99.90
9223;DHT22;7557;51.698;3.942;2023-04-15T10:23:58;14.70;99.90
9223;DHT22;7557;51.698;3.942;2023-04-15T10:26:27;14.70;99.90
9223;DHT22;7557;51.698;3.942;2023-04-15T10:28:56;14.60;99.90
9223;DHT22;7557;51.698;3.942;2023-04-15T10:31:24;14.60;99.50
9223;DHT22;7557;51.698;3.942;2023-04-15T10:33:53;14.50;99.80
9223;DHT22;7557;51.698;3.942;2023-04-15T10:36:21;14.60;98.70
9223;DHT22;7557;51.698;3.942;2023-04-15T10:38:49;14.70;99.90
9223;DHT22;7557;51.698;3.942;2023-04-15T10:41:18;14.80;99.40
9223;DHT22;7557;51.698;3.942;2023-04-15T10:43:52;14.80;99.90
9223;DHT22;7557;51.698;3.942;2023-04-15T10:46:22;14.80;99.90
9223;DHT22;7557;51.698;3.942;2023-04-15T10:48:52;14.80;99.90
9223;DHT22;7557;51.698;3.942;2023-04-15T10:51:28;14.90;99.90
9223;DHT22;7557;51.698;3.942;2023-04-15T10:53:57;15.00;99.80
9223;DHT22;7557;51.698;3.942;2023-04-15T10:56:28;15.00;99.90
9223;DHT22;7557;51.698;3.942;2023-04-15T10:58:58;15.10;99.40
9223;DHT22;7557;51.698;3.942;2023-04-15T11:01:50;15.00;98.80
9223;DHT22;7557;51.698;3.942;2023-04-15T11:04:56;14.90;99.00
9223;DHT22;7557;51.698;3.942;2023-04-15T11:07:39;15.00;97.60
9223;DHT22;7557;51.698;3.942;2023-04-15T11:13:17;15.10;97.00
9223;DHT22;7557;51.698;3.942;2023-04-15T11:15:47;15.10;97.10
9223;DHT22;7557;51.698;3.942;2023-04-15T11:18:16;15.10;98.20
9223;DHT22;7557;51.698;3.942;2023-04-15T11:20:47;15.10;99.90
9223;DHT22;7557;51.698;3.942;2023-04-15T11:23:18;15.10;99.90
9223;DHT22;7557;51.698;3.942;2023-04-15T11:25:46;15.20;99.90
9223;DHT22;7557;51.698;3.942;2023-04-15T11:28:13;15.00;99.90
9223;DHT22;7557;51.698;3.942;2023-04-15T11:30:41;15.00;99.90
9223;DHT22;7557;51.698;3.942;2023-04-15T11:33:12;15.10;99.90
9223;DHT22;7557;51.698;3.942;2023-04-15T11:35:40;15.10;99.90
9223;DHT22;7557;51.698;3.942;2023-04-15T11:38:11;15.00;99.90
9223;DHT22;7557;51.698;3.942;2023-04-15T11:40:43;14.90;99.90
9223;DHT22;7557;51.698;3.942;2023-04-15T11:43:12;14.80;99.90
9223;DHT22;7557;51.698;3.942;2023-04-15T11:45:48;14.70;99.90
9223;DHT22;7557;51.698;3.942;2023-04-15T11:48:16;14.70;99.90
9223;DHT22;7557;51.698;3.942;2023-04-15T11:50:51;14.60;99.90
9223;DHT22;7557;51.698;3.942;2023-04-15T11:53:20;14.60;99.90
9223;DHT22;7557;51.698;3.942;2023-04-15T11:55:50;14.80;99.90
9223;DHT22;7557;51.698;3.942;2023-04-15T11:58:22;14.70;99.90
9223;DHT22;7557;51.698;3.942;2023-04-15T12:00:52;14.60;99.90
9223;DHT22;7557;51.698;3.942;2023-04-15T12:03:24;14.60;99.90
9223;DHT22;7557;51.698;3.942;2023-04-15T12:06:13;14.60;99.90
9223;DHT22;7557;51.698;3.942;2023-04-15T12:08:58;14.60;99.90
9223;DHT22;7557;51.698;3.942;2023-04-15T12:11:34;14.60;99.90
9223;DHT22;7557;51.698;3.942;2023-04-15T12:14:08;14.60;99.90
9223;DHT22;7557;51.698;3.942;2023-04-15T12:16:39;14.50;99.90
9223;DHT22;7557;51.698;3.942;2023-04-15T12:19:09;14.40;99.90
9223;DHT22;7557;51.698;3.942;2023-04-15T12:21:37;14.40;99.90
9223;DHT22;7557;51.698;3.942;2023-04-15T12:24:08;14.30;99.90
9223;DHT22;7557;51.698;3.942;2023-04-15T12:26:42;14.30;99.90
9223;DHT22;7557;51.698;3.942;2023-04-15T12:29:11;14.10;99.90
9223;DHT22;7557;51.698;3.942;2023-04-15T12:31:47;14.00;99.90
9223;DHT22;7557;51.698;3.942;2023-04-15T12:34:24;14.00;99.90
9223;DHT22;7557;51.698;3.942;2023-04-15T12:36:52;14.00;99.90
9223;DHT22;7557;51.698;3.942;2023-04-15T12:39:23;13.90;99.90
9223;DHT22;7557;51.698;3.942;2023-04-15T12:41:50;13.90;99.90
9223;DHT22;7557;51.698;3.942;2023-04-15T12:44:18;14.00;99.90
9223;DHT22;7557;51.698;3.942;2023-04-15T12:46:46;14.10;99.90
9223;DHT22;7557;51.698;3.942;2023-04-15T12:49:13;14.10;99.90
9223;DHT22;7557;51.698;3.942;2023-04-15T12:51:41;13.90;99.90
9223;DHT22;7557;51.698;3.942;2023-04-15T12:54:08;13.90;99.90
9223;DHT22;7557;51.698;3.942;2023-04-15T12:56:38;14.00;99.90
9223;DHT22;7557;51.698;3.942;2023-04-15T12:59:05;14.10;99.90
9223;DHT22;7557;51.698;3.942;2023-04-15T13:01:33;14.20;99.90
9223;DHT22;7557;51.698;3.942;2023-04-15T13:04:00;14.20;99.90
9223;DHT22;7557;51.698;3.942;2023-04-15T13:06:28;14.20;99.90
9223;DHT22;7557;51.698;3.942;2023-04-15T13:08:58;14.10;99.90
9223;DHT22;7557;51.698;3.942;2023-04-15T13:11:26;14.00;99.90
9223;DHT22;7557;51.698;3.942;2023-04-15T13:14:00;14.10;99.90
9223;DHT22;7557;51.698;3.942;2023-04-15T13:16:28;14.10;99.90
9223;DHT22;7557;51.698;3.942;2023-04-15T13:18:56;14.10;99.90
9223;DHT22;7557;51.698;3.942;2023-04-15T13:21:24;14.10;99.90
9223;DHT22;7557;51.698;3.942;2023-04-15T13:23:52;14.20;99.90
9223;DHT22;7557;51.698;3.942;2023-04-15T13:26:19;14.20;99.90
9223;DHT22;7557;51.698;3.942;2023-04-15T13:28:47;14.10;99.90
9223;DHT22;7557;51.698;3.942;2023-04-15T13:31:16;14.10;99.90
9223;DHT22;7557;51.698;3.942;2023-04-15T13:33:44;14.10;99.90
9223;DHT22;7557;51.698;3.942;2023-04-15T13:36:11;14.00;99.90
9223;DHT22;7557;51.698;3.942;2023-04-15T13:38:39;14.00;99.90
9223;DHT22;7557;51.698;3.942;2023-04-15T13:41:06;14.00;99.90
9223;DHT22;7557;51.698;3.942;2023-04-15T13:43:34;14.00;99.90
9223;DHT22;7557;51.698;3.942;2023-04-15T13:46:01;14.00;99.90
9223;DHT22;7557;51.698;3.942;2023-04-15T13:48:31;14.00;99.90
9223;DHT22;7557;51.698;3.942;2023-04-15T13:50:58;14.00;99.90
9223;DHT22;7557;51.698;3.942;2023-04-15T13:53:25;14.10;99.90
9223;DHT22;7557;51.698;3.942;2023-04-15T13:55:55;14.00;99.90
9223;DHT22;7557;51.698;3.942;2023-04-15T13:58:22;14.00;99.90
9223;DHT22;7557;51.698;3.942;2023-04-15T14:00:50;13.90;99.90
9223;DHT22;7557;51.698;3.942;2023-04-15T14:03:17;13.80;99.90
9223;DHT22;7557;51.698;3.942;2023-04-15T14:05:46;13.70;99.90
9223;DHT22;7557;51.698;3.942;2023-04-15T14:08:18;13.80;99.90
9223;DHT22;7557;51.698;3.942;2023-04-15T14:10:45;13.80;99.90
9223;DHT22;7557;51.698;3.942;2023-04-15T14:13:13;13.80;99.90
9223;DHT22;7557;51.698;3.942;2023-04-15T14:15:41;13.80;99.90
9223;DHT22;7557;51.698;3.942;2023-04-15T14:18:08;13.70;99.90
9223;DHT22;7557;51.698;3.942;2023-04-15T14:20:36;13.60;99.90
9223;DHT22;7557;51.698;3.942;2023-04-15T14:23:05;13.60;99.90
9223;DHT22;7557;51.698;3.942;2023-04-15T14:25:33;13.70;99.90
9223;DHT22;7557;51.698;3.942;2023-04-15T14:28:00;13.70;99.90
9223;DHT22;7557;51.698;3.942;2023-04-15T14:30:28;13.60;99.90
9223;DHT22;7557;51.698;3.942;2023-04-15T14:32:55;13.60;99.90
9223;DHT22;7557;51.698;3.942;2023-04-15T14:35:23;13.50;99.90
9223;DHT22;7557;51.698;3.942;2023-04-15T14:37:52;13.50;99.90
9223;DHT22;7557;51.698;3.942;2023-04-15T14:40:21;13.50;99.90
9223;DHT22;7557;51.698;3.942;2023-04-15T14:42:49;13.50;99.90
9223;DHT22;7557;51.698;3.942;2023-04-15T14:45:16;13.40;99.90
9223;DHT22;7557;51.698;3.942;2023-04-15T14:47:44;13.40;99.90
9223;DHT22;7557;51.698;3.942;2023-04-15T14:50:11;13.40;99.90
9223;DHT22;7557;51.698;3.942;2023-04-15T14:52:39;13.40;99.90
9223;DHT22;7557;51.698;3.942;2023-04-15T14:55:07;13.30;99.90
9223;DHT22;7557;51.698;3.942;2023-04-15T14:57:38;13.30;99.90
9223;DHT22;7557;51.698;3.942;2023-04-15T15:00:07;13.20;99.90
9223;DHT22;7557;51.698;3.942;2023-04-15T15:02:35;13.20;99.90
9223;DHT22;7557;51.698;3.942;2023-04-15T15:05:06;13.10;99.90
9223;DHT22;7557;51.698;3.942;2023-04-15T15:07:34;13.20;99.90
9223;DHT22;7557;51.698;3.942;2023-04-15T15:10:02;13.20;99.90
9223;DHT22;7557;51.698;3.942;2023-04-15T15:12:29;13.20;99.90
9223;DHT22;7557;51.698;3.942;2023-04-15T15:14:59;13.10;99.90
9223;DHT22;7557;51.698;3.942;2023-04-15T15:17:26;13.10;99.90
9223;DHT22;7557;51.698;3.942;2023-04-15T15:19:53;13.00;99.90
9223;DHT22;7557;51.698;3.942;2023-04-15T15:22:21;12.90;99.90
9223;DHT22;7557;51.698;3.942;2023-04-15T15:24:49;12.90;99.90
9223;DHT22;7557;51.698;3.942;2023-04-15T15:27:17;12.80;99.90
9223;DHT22;7557;51.698;3.942;2023-04-15T15:29:44;12.80;99.90
9223;DHT22;7557;51.698;3.942;2023-04-15T15:32:14;12.70;99.90
9223;DHT22;7557;51.698;3.942;2023-04-15T15:34:41;12.70;99.90
9223;DHT22;7557;51.698;3.942;2023-04-15T15:37:09;12.50;99.90
9223;DHT22;7557;51.698;3.942;2023-04-15T15:39:36;12.50;99.90
9223;DHT22;7557;51.698;3.942;2023-04-15T15:42:04;12.60;99.90
9223;DHT22;7557;51.698;3.942;2023-04-15T15:44:32;12.60;99.90
9223;DHT22;7557;51.698;3.942;2023-04-15T15:47:01;12.60;99.90
9223;DHT22;7557;51.698;3.942;2023-04-15T15:49:30;12.60;99.90
9223;DHT22;7557;51.698;3.942;2023-04-15T15:51:58;12.50;99.90
9223;DHT22;7557;51.698;3.942;2023-04-15T15:54:26;12.50;99.90
9223;DHT22;7557;51.698;3.942;2023-04-15T15:56:54;12.50;99.90
9223;DHT22;7557;51.698;3.942;2023-04-15T15:59:23;12.40;99.90
9223;DHT22;7557;51.698;3.942;2023-04-15T16:01:51;12.40;99.90
9223;DHT22;7557;51.698;3.942;2023-04-15T16:04:19;12.40;99.90
9223;DHT22;7557;51.698;3.942;2023-04-15T16:06:48;12.40;99.90
9223;DHT22;7557;51.698;3.942;2023-04-15T16:09:15;12.30;99.90
9223;DHT22;7557;51.698;3.942;2023-04-15T16:11:43;12.30;99.90
9223;DHT22;7557;51.698;3.942;2023-04-15T16:14:11;12.20;99.90